Time;durP1;ratioP1;P1;durP2;ratioP2;P2;SDS_P1;SDS_P2;PMS_P1;PMS_P2;Temp;Humidity;BMP_temperature;BMP_pressure;BME280_temperature;BME280_humidity;BME280_pressure;Samples;Min_cycle;Max_cycle;Signal;HPM_P1;HPM_P2
2022/09/13 10:58:24;;;;;;;5.78;2.40;;;23.20;61.00;;;;;;1957981;73;25298;-68
2022/09/13 11:01:01;;;;;;;2.37;2.17;;;23.00;60.80;;;;;;1917546;73;21094;-65
2022/09/13 11:03:51;;;;;;;2.30;1.90;;;23.00;59.20;;;;;;1916430;74;21066;-64
2022/09/13 11:06:41;;;;;;;3.45;2.65;;;23.00;60.10;;;;;;1904452;74;21043;-66
2022/09/13 11:09:19;;;;;;;2.25;2.05;;;23.00;60.00;;;;;;1917767;74;21039;-67
2022/09/13 11:12:21;;;;;;;3.40;2.10;;;23.10;58.70;;;;;;1916403;74;21078;-68
2022/09/13 11:15:05;;;;;;;3.95;2.17;;;23.20;58.00;;;;;;1917104;74;21018;-65
2022/09/13 11:17:46;;;;;;;6.05;2.60;;;23.20;57.00;;;;;;1917704;75;21526;-64
2022/09/13 11:20:26;;;;;;;4.42;2.47;;;23.40;56.30;;;;;;1915633;74;21532;-63
2022/09/13 11:23:09;;;;;;;3.85;2.77;;;23.50;57.60;;;;;;1916864;74;21074;-68
2022/09/13 11:26:07;;;;;;;6.08;2.20;;;23.60;58.80;;;;;;1917711;75;21014;-64
2022/09/13 11:29:08;;;;;;;5.35;2.35;;;23.70;58.50;;;;;;1917514;75;21015;-65
2022/09/13 11:31:55;;;;;;;3.35;2.65;;;23.70;58.30;;;;;;1917821;73;21156;-67
2022/09/13 11:34:34;;;;;;;4.33;2.47;;;23.80;57.40;;;;;;1916958;74;21076;-67
2022/09/13 11:37:05;;;;;;;3.85;2.40;;;23.80;57.10;;;;;;1917039;74;21072;-63
2022/09/13 11:40:11;;;;;;;2.12;1.80;;;23.80;58.30;;;;;;1917578;75;21402;-67
2022/09/13 11:43:07;;;;;;;5.83;1.90;;;23.80;56.10;;;;;;1797362;80;21152;-66
2022/09/13 11:46:06;;;;;;;7.03;2.40;;;23.80;56.10;;;;;;1797321;80;21100;-67
2022/09/13 11:48:44;;;;;;;1.75;1.62;;;23.70;57.10;;;;;;1796723;80;21089;-65
2022/09/13 11:51:39;;;;;;;4.60;2.80;;;23.70;57.80;;;;;;1796270;80;21131;-65
2022/09/13 11:54:31;;;;;;;5.70;3.73;;;23.50;57.30;;;;;;1797607;80;21170;-64
2022/09/13 11:57:03;;;;;;;8.25;4.53;;;23.40;57.80;;;;;;1797232;80;21068;-64
2022/09/13 11:59:38;;;;;;;4.50;2.50;;;23.40;59.40;;;;;;1797258;80;21080;-65
2022/09/13 12:02:13;;;;;;;3.05;2.77;;;23.40;59.60;;;;;;1797137;80;21085;-64
2022/09/13 12:04:54;;;;;;;3.92;2.77;;;23.40;60.00;;;;;;1796245;80;22139;-65
2022/09/13 12:07:40;;;;;;;3.37;2.52;;;23.30;61.20;;;;;;1797157;79;21134;-65
2022/09/13 12:10:29;;;;;;;4.12;2.80;;;23.30;61.80;;;;;;1796773;80;21080;-62
2022/09/13 12:13:00;;;;;;;3.25;2.72;;;23.30;61.70;;;;;;1796671;80;21119;-64
2022/09/13 12:15:38;;;;;;;3.50;2.77;;;23.30;60.90;;;;;;1796586;79;21108;-61
2022/09/13 12:18:13;;;;;;;17.20;8.63;;;23.20;61.40;;;;;;1796535;80;21164;-66
2022/09/13 12:20:57;;;;;;;8.90;4.97;;;23.10;61.50;;;;;;1796634;80;21100;-65
2022/09/13 12:23:34;;;;;;;11.08;6.80;;;23.00;61.40;;;;;;1796121;80;21053;-61
2022/09/13 12:26:06;;;;;;;3.62;2.87;;;23.00;61.80;;;;;;1796686;80;21539;-64
2022/09/13 12:28:39;;;;;;;7.10;3.77;;;23.00;62.80;;;;;;1796752;80;21160;-65
2022/09/13 12:31:18;;;;;;;8.38;3.58;;;22.90;62.50;;;;;;1796236;80;21522;-70
2022/09/13 12:33:48;;;;;;;5.72;3.15;;;22.90;62.60;;;;;;1796626;80;21120;-68
2022/09/13 12:36:39;;;;;;;5.08;3.47;;;23.00;63.10;;;;;;1796853;80;21112;-67
2022/09/13 12:39:30;;;;;;;3.98;3.20;;;23.00;63.40;;;;;;1796672;80;21053;-62
2022/09/13 12:42:08;;;;;;;4.35;3.27;;;23.00;63.20;;;;;;1796177;78;21648;-66
2022/09/13 12:44:52;;;;;;;5.75;4.15;;;23.00;63.10;;;;;;1796662;80;21167;-62
2022/09/13 12:47:30;;;;;;;9.15;3.98;;;22.90;62.40;;;;;;1757985;80;21191;-60
2022/09/13 12:50:14;;;;;;;5.10;3.60;;;22.90;62.90;;;;;;1796228;80;21085;-69
2022/09/13 12:53:10;;;;;;;5.08;3.22;;;22.80;63.20;;;;;;1796728;80;21507;-68
2022/09/13 12:55:57;;;;;;;3.80;3.35;;;22.70;63.40;;;;;;1797152;80;21483;-63
2022/09/13 12:58:48;;;;;;;6.92;3.02;;;22.50;63.70;;;;;;1792440;79;21029;-64
2022/09/13 13:01:26;;;;;;;3.58;2.85;;;22.50;63.80;;;;;;1797410;80;21080;-64
2022/09/13 13:03:58;;;;;;;3.47;3.08;;;22.40;64.30;;;;;;1797327;80;21040;-63
2022/09/13 13:06:56;;;;;;;3.05;2.80;;;22.20;64.60;;;;;;1797249;80;21523;-63
2022/09/13 13:09:47;;;;;;;4.57;3.27;;;22.20;64.90;;;;;;1784329;77;21142;-63
2022/09/13 13:12:31;;;;;;;4.30;3.10;;;22.10;64.90;;;;;;1787301;80;21048;-63
2022/09/13 13:15:03;;;;;;;4.33;3.52;;;22.10;65.00;;;;;;1787618;80;21068;-63
2022/09/13 13:17:52;;;;;;;4.00;2.90;;;22.10;65.20;;;;;;1787093;80;21141;-64
2022/09/13 13:20:56;;;;;;;3.60;2.40;;;22.10;65.20;;;;;;1787190;80;21099;-63
2022/09/13 13:23:31;;;;;;;3.40;2.72;;;22.00;64.60;;;;;;1787177;80;21044;-64
2022/09/13 13:26:22;;;;;;;3.87;2.55;;;22.00;64.90;;;;;;1787198;79;21111;-64
2022/09/13 13:28:53;;;;;;;4.97;2.83;;;21.90;65.40;;;;;;1787212;79;21043;-63
2022/09/13 13:31:31;;;;;;;2.98;2.50;;;21.90;65.50;;;;;;1786093;79;21114;-63
2022/09/13 13:34:18;;;;;;;3.22;2.30;;;21.80;65.70;;;;;;1787201;79;21095;-64
2022/09/13 13:36:51;;;;;;;4.17;2.35;;;21.80;65.90;;;;;;1787314;80;21509;-63
2022/09/13 13:39:28;;;;;;;3.12;2.33;;;21.70;65.70;;;;;;1787297;79;21051;-63
2022/09/13 13:42:12;;;;;;;5.22;2.85;;;21.60;65.90;;;;;;1787225;79;21044;-64
2022/09/13 13:44:46;;;;;;;3.90;2.83;;;21.60;66.50;;;;;;1787272;79;21113;-64
2022/09/13 13:47:21;;;;;;;3.55;2.12;;;21.50;66.70;;;;;;1787059;79;21506;-64
2022/09/13 13:49:51;;;;;;;;;;;21.50;66.80;;;;;;1789846;79;21130;-63
2022/09/13 13:52:23;;;;;;;4.85;3.10;;;21.50;67.00;;;;;;1787053;79;20098;-64
2022/09/13 13:55:03;;;;;;;9.33;3.75;;;21.40;67.20;;;;;;1787161;79;21566;-63
2022/09/13 13:57:44;;;;;;;10.48;5.28;;;21.50;67.60;;;;;;1784415;79;21054;-63
2022/09/13 14:00:20;;;;;;;4.83;2.80;;;21.50;67.70;;;;;;1787100;79;21027;-63
2022/09/13 14:02:55;;;;;;;5.20;2.67;;;21.50;67.60;;;;;;1787145;80;21048;-63
2022/09/13 14:05:45;;;;;;;3.80;2.70;;;21.40;67.30;;;;;;1786117;80;21542;-63
2022/09/13 14:08:39;;;;;;;6.47;2.90;;;21.40;67.40;;;;;;1791624;79;21079;-63
2022/09/13 14:11:10;;;;;;;3.17;2.27;;;21.30;67.60;;;;;;1820392;78;21020;-63
2022/09/13 14:14:00;;;;;;;5.75;3.08;;;21.20;67.70;;;;;;1813870;78;21464;-63
2022/09/13 14:16:59;;;;;;;2.45;2.25;;;21.20;68.20;;;;;;1859008;77;21056;-63
2022/09/13 14:19:40;;;;;;;3.60;2.55;;;21.20;68.10;;;;;;1858837;77;21495;-64
2022/09/13 14:22:28;;;;;;;3.60;2.33;;;21.20;68.30;;;;;;1859165;77;21059;-62
2022/09/13 14:25:00;;;;;;;4.50;2.30;;;21.20;68.50;;;;;;1859372;77;21041;-62
2022/09/13 14:27:32;;;;;;;2.40;2.10;;;21.20;68.40;;;;;;1858560;77;21538;-63
2022/09/13 14:30:04;;;;;;;5.62;2.83;;;21.20;68.60;;;;;;1859344;77;21056;-63
2022/09/13 14:32:42;;;;;;;3.55;2.60;;;21.20;68.70;;;;;;1859321;77;21126;-62
2022/09/13 14:35:26;;;;;;;5.03;3.15;;;21.20;69.70;;;;;;1859649;77;21134;-62
2022/09/13 14:37:57;;;;;;;4.08;2.85;;;21.20;70.60;;;;;;1855379;77;21041;-63
2022/09/13 14:40:28;;;;;;;2.35;1.80;;;21.30;70.90;;;;;;1859090;77;21064;-63
2022/09/13 14:42:57;;;;;;;5.05;2.33;;;21.30;70.00;;;;;;1861256;77;21040;-63
2022/09/13 14:45:35;;;;;;;3.08;2.08;;;21.30;70.10;;;;;;1861564;77;21115;-63
2022/09/13 14:48:16;;;;;;;3.00;2.62;;;21.30;70.50;;;;;;1857853;77;21562;-63
2022/09/13 14:51:09;;;;;;;3.12;2.02;;;21.30;70.80;;;;;;1864161;76;21111;-63
2022/09/13 14:53:41;;;;;;;4.83;2.17;;;21.40;70.60;;;;;;1858126;76;21057;-62
2022/09/13 14:56:19;;;;;;;3.02;1.90;;;21.30;69.60;;;;;;1858450;77;21045;-62
2022/09/13 14:58:54;;;;;;;3.27;2.40;;;21.20;69.50;;;;;;1845802;77;21053;-62
2022/09/13 15:01:29;;;;;;;2.02;1.82;;;21.10;70.10;;;;;;1858894;77;21491;-62
2022/09/13 15:04:00;;;;;;;1.95;1.67;;;21.10;69.70;;;;;;1858116;77;21044;-62
2022/09/13 15:06:32;;;;;;;2.47;2.27;;;21.00;69.90;;;;;;1858695;77;21144;-62
2022/09/13 15:09:13;;;;;;;4.20;2.10;;;20.90;70.40;;;;;;1858922;77;21076;-62
2022/09/13 15:11:58;;;;;;;2.47;2.27;;;20.90;71.30;;;;;;1853512;77;21069;-62
2022/09/13 15:14:37;;;;;;;2.30;2.10;;;21.00;71.80;;;;;;1848305;76;21107;-62
2022/09/13 15:17:12;;;;;;;3.47;3.00;;;21.00;72.20;;;;;;1840896;78;21824;-62
2022/09/13 15:19:43;;;;;;;5.22;3.77;;;21.00;72.30;;;;;;1841500;78;21143;-63
2022/09/13 15:22:18;;;;;;;2.35;2.15;;;21.00;72.20;;;;;;1841351;78;21041;-63
2022/09/13 15:24:51;;;;;;;;;;;21.00;72.00;;;;;;1844209;78;21044;-63
2022/09/13 15:27:28;;;;;;;3.85;2.35;;;20.90;72.80;;;;;;1840333;78;20107;-63
2022/09/13 15:30:03;;;;;;;3.70;3.10;;;20.80;72.90;;;;;;1841316;78;21030;-63
2022/09/13 15:32:35;;;;;;;7.03;4.25;;;20.60;73.50;;;;;;1841598;78;21159;-63
2022/09/13 15:35:05;;;;;;;7.40;4.92;;;20.50;74.00;;;;;;1841468;78;21550;-63
2022/09/13 15:37:37;;;;;;;4.90;3.40;;;20.50;74.40;;;;;;1839307;78;21907;-63
2022/09/13 15:40:14;;;;;;;4.83;3.92;;;20.50;74.70;;;;;;1841306;78;21025;-63
2022/09/13 15:42:52;;;;;;;4.40;3.67;;;20.40;75.00;;;;;;1841346;78;21500;-63
2022/09/13 15:45:22;;;;;;;8.00;3.62;;;20.40;76.00;;;;;;1841430;78;21042;-63
2022/09/13 15:47:52;;;;;;;5.37;4.20;;;20.30;76.00;;;;;;1841497;78;21042;-63
2022/09/13 15:50:29;;;;;;;5.85;4.80;;;20.30;76.80;;;;;;1841458;78;21038;-63
2022/09/13 15:53:00;;;;;;;19.23;13.40;;;20.30;77.10;;;;;;1841584;78;21104;-63
2022/09/13 15:55:30;;;;;;;10.20;6.60;;;20.30;77.50;;;;;;1841396;78;21108;-63
2022/09/13 15:58:00;;;;;;;14.95;6.50;;;20.30;77.80;;;;;;1841408;78;21119;-63
2022/09/13 16:00:29;;;;;;;6.95;5.30;;;20.30;78.10;;;;;;1841406;78;21045;-63
2022/09/13 16:02:59;;;;;;;9.33;5.70;;;20.30;78.30;;;;;;1841352;78;21041;-63
2022/09/13 16:05:28;;;;;;;8.00;5.12;;;20.30;78.70;;;;;;1841548;78;21042;-63
2022/09/13 16:07:57;;;;;;;9.70;5.83;;;20.30;79.00;;;;;;1841555;78;21034;-63
2022/09/13 16:10:27;;;;;;;8.63;5.25;;;20.30;79.30;;;;;;1841495;78;21123;-63
2022/09/13 16:12:57;;;;;;;11.00;7.12;;;20.30;79.50;;;;;;1841423;78;21034;-63
2022/09/13 16:15:27;;;;;;;11.60;8.08;;;20.30;79.60;;;;;;1841417;77;21562;-63
2022/09/13 16:17:56;;;;;;;10.80;6.60;;;20.30;79.70;;;;;;1841406;78;21104;-63
2022/09/13 16:20:26;;;;;;;11.97;6.10;;;20.30;79.90;;;;;;1841361;78;21022;-63
2022/09/13 16:22:55;;;;;;;15.83;9.30;;;20.20;80.00;;;;;;1841390;78;21104;-63
2022/09/13 16:25:25;;;;;;;17.30;8.50;;;20.30;80.20;;;;;;1841412;78;21058;-63
2022/09/13 16:27:54;;;;;;;18.15;8.55;;;20.30;80.30;;;;;;1841506;78;21037;-63
2022/09/13 16:30:26;;;;;;;16.77;8.18;;;20.30;80.40;;;;;;1841481;78;21140;-63
2022/09/13 16:32:56;;;;;;;14.28;7.00;;;20.20;80.40;;;;;;1841525;78;21057;-64
2022/09/13 16:35:30;;;;;;;18.02;8.78;;;20.20;80.80;;;;;;1841636;78;21025;-63
2022/09/13 16:38:01;;;;;;;21.60;6.85;;;20.20;80.90;;;;;;1841782;78;21032;-63
2022/09/13 16:40:30;;;;;;;10.90;6.33;;;20.10;81.00;;;;;;1791154;79;21116;-63
2022/09/13 16:42:59;;;;;;;15.55;7.10;;;20.10;81.20;;;;;;1791162;80;21120;-63
2022/09/13 16:45:29;;;;;;;8.80;5.65;;;20.10;81.20;;;;;;1791112;80;21045;-63
2022/09/13 16:47:58;;;;;;;10.50;4.70;;;20.10;81.20;;;;;;1791127;80;21077;-63
2022/09/13 16:50:28;;;;;;;7.30;5.08;;;20.10;81.30;;;;;;1791198;79;21057;-63
2022/09/13 16:52:57;;;;;;;11.05;6.22;;;20.10;81.20;;;;;;1791142;79;21049;-63
2022/09/13 16:55:29;;;;;;;12.37;7.42;;;20.10;81.20;;;;;;1791254;80;21100;-63
2022/09/13 16:57:59;;;;;;;16.75;10.53;;;20.10;81.40;;;;;;1791182;80;21065;-63
2022/09/13 17:00:29;;;;;;;18.40;10.72;;;20.10;81.60;;;;;;1841502;78;21049;-63
2022/09/13 17:02:58;;;;;;;16.97;11.22;;;20.10;81.70;;;;;;1841591;78;21033;-63
2022/09/13 17:05:44;;;;;;;11.48;7.62;;;20.00;81.80;;;;;;1841444;78;21038;-63
2022/09/13 17:08:14;;;;;;;7.65;6.50;;;20.00;82.10;;;;;;1836097;78;21111;-63
2022/09/13 17:10:47;;;;;;;14.25;7.65;;;19.90;82.20;;;;;;1841586;78;21041;-63
2022/09/13 17:13:19;;;;;;;19.10;10.43;;;19.90;82.50;;;;;;1841372;78;21061;-63
2022/09/13 17:15:49;;;;;;;17.07;8.63;;;19.80;82.50;;;;;;1841308;77;21488;-63
2022/09/13 17:18:22;;;;;;;12.00;7.45;;;19.80;82.90;;;;;;1841417;78;21483;-63
2022/09/13 17:20:51;;;;;;;14.10;6.78;;;19.70;82.90;;;;;;1840882;78;21022;-63
2022/09/13 17:23:20;;;;;;;11.22;6.70;;;19.70;83.20;;;;;;1841460;78;21062;-63
2022/09/13 17:25:53;;;;;;;7.97;5.92;;;19.70;83.30;;;;;;1841520;78;21060;-63
2022/09/13 17:28:23;;;;;;;9.35;5.72;;;19.70;83.50;;;;;;1841430;78;21077;-63
2022/09/13 17:30:54;;;;;;;6.67;5.08;;;19.70;83.70;;;;;;1841445;77;21116;-63
2022/09/13 17:33:26;;;;;;;7.85;4.83;;;19.70;83.90;;;;;;1841567;78;21072;-63
2022/09/13 17:36:02;;;;;;;6.47;5.00;;;19.70;84.00;;;;;;1820875;79;21032;-63
2022/09/13 17:38:33;;;;;;;3.98;3.52;;;19.60;84.00;;;;;;1836923;78;21127;-63
2022/09/13 17:41:12;;;;;;;7.10;5.15;;;19.50;83.90;;;;;;1840507;78;21053;-63
2022/09/13 17:43:43;;;;;;;4.47;3.45;;;19.50;84.30;;;;;;1841590;78;21045;-62
2022/09/13 17:46:15;;;;;;;6.60;4.50;;;19.40;83.90;;;;;;1841556;78;21625;-63
2022/09/13 17:48:48;;;;;;;7.25;4.10;;;19.30;83.90;;;;;;1841590;78;21070;-63
2022/09/13 17:51:23;;;;;;;6.45;4.10;;;19.20;84.40;;;;;;1838156;78;21041;-63
2022/09/13 17:57:00;;;;;;;6.30;4.58;;;19.20;84.90;;;;;;1977997;72;21097;-62
2022/09/13 17:59:31;;;;;;;6.97;5.03;;;19.20;84.90;;;;;;1974865;72;21468;-64
2022/09/13 18:02:03;;;;;;;7.55;4.87;;;19.20;85.00;;;;;;1978173;72;20986;-63
2022/09/13 18:04:42;;;;;;;8.23;4.20;;;19.20;85.10;;;;;;1978132;72;21059;-64
2022/09/13 18:07:12;;;;;;;4.75;4.28;;;19.20;85.20;;;;;;1976553;72;20998;-63
2022/09/13 18:09:52;;;;;;;5.42;4.20;;;19.30;85.30;;;;;;1962952;72;21094;-63
2022/09/13 18:12:28;;;;;;;4.87;4.05;;;19.30;85.50;;;;;;1978140;72;21073;-63
2022/09/13 18:15:02;;;;;;;8.18;4.85;;;19.20;85.60;;;;;;1973529;72;21023;-64
2022/09/13 18:17:32;;;;;;;5.12;4.40;;;19.30;85.80;;;;;;1978213;72;21022;-63
2022/09/13 18:20:02;;;;;;;4.60;4.20;;;19.30;85.80;;;;;;1978217;72;21030;-63
2022/09/13 18:22:34;;;;;;;5.10;4.25;;;19.30;85.90;;;;;;1977930;72;21120;-64
2022/09/13 18:25:04;;;;;;;6.03;4.83;;;19.30;86.00;;;;;;1978074;72;21124;-64
2022/09/13 18:27:35;;;;;;;5.00;4.50;;;19.30;86.00;;;;;;1978171;72;21048;-62
2022/09/13 18:30:06;;;;;;;4.60;4.00;;;19.30;86.00;;;;;;1974063;72;21069;-62
2022/09/13 18:32:50;;;;;;;5.10;4.60;;;19.20;86.10;;;;;;1974689;72;21119;-62
2022/09/13 18:35:33;;;;;;;4.92;3.80;;;19.20;86.30;;;;;;1978180;72;21130;-62
2022/09/13 18:38:02;;;;;;;6.03;3.67;;;19.20;86.30;;;;;;1974171;72;21013;-63
2022/09/13 18:40:33;;;;;;;6.05;4.00;;;19.20;86.50;;;;;;1978187;72;21059;-63
2022/09/13 18:43:03;;;;;;;7.05;6.20;;;19.20;86.50;;;;;;1978150;72;21440;-63
2022/09/13 18:45:33;;;;;;;7.17;4.67;;;19.20;86.40;;;;;;1977762;72;21444;-63
2022/09/13 18:48:02;;;;;;;6.50;4.30;;;19.20;86.50;;;;;;1977966;72;21006;-62
2022/09/13 18:50:51;;;;;;;6.60;4.45;;;19.20;86.80;;;;;;1977853;72;21512;-63
2022/09/13 18:53:22;;;;;;;5.35;4.08;;;19.20;86.90;;;;;;1977845;72;21049;-62
2022/09/13 18:55:59;;;;;;;5.67;4.17;;;19.10;86.90;;;;;;1977425;72;21006;-62
2022/09/13 18:58:25;;;;;;;5.92;3.77;;;19.10;87.20;;;;;;1976414;72;21147;-63
2022/09/13 19:01:08;;;;;;;4.25;3.55;;;19.20;87.20;;;;;;1977683;72;21029;-62
2022/09/13 19:03:38;;;;;;;;;;;19.10;87.20;;;;;;1917956;72;21060;-62
2022/09/13 19:06:16;;;;;;;8.48;4.35;;;19.20;87.00;;;;;;1977770;72;20406;-62
2022/09/13 19:08:48;;;;;;;4.47;4.08;;;19.10;86.70;;;;;;1977650;72;21037;-62
2022/09/13 19:11:20;;;;;;;9.53;3.90;;;19.10;86.80;;;;;;1977698;72;20974;-62
2022/09/13 19:13:50;;;;;;;5.33;4.12;;;19.10;87.70;;;;;;1977807;72;21080;-62
2022/09/13 19:16:20;;;;;;;5.87;3.83;;;19.10;87.10;;;;;;1977707;72;21069;-63
2022/09/13 19:18:51;;;;;;;4.47;4.00;;;19.10;87.10;;;;;;1977729;72;21059;-62
2022/09/13 19:21:29;;;;;;;4.72;4.20;;;19.00;87.20;;;;;;1977783;72;21181;-62
2022/09/13 19:24:02;;;;;;;6.15;3.42;;;19.10;88.00;;;;;;1977918;72;21061;-62
2022/09/13 19:26:37;;;;;;;6.72;3.40;;;19.00;87.40;;;;;;1977762;72;21026;-62
2022/09/13 19:29:08;;;;;;;5.10;3.58;;;19.00;87.50;;;;;;1978072;72;20997;-62
2022/09/13 19:31:40;;;;;;;6.17;4.05;;;19.00;87.50;;;;;;1977777;72;21025;-62
2022/09/13 19:34:11;;;;;;;8.05;4.20;;;19.00;87.60;;;;;;1977807;72;21084;-62
2022/09/13 19:36:42;;;;;;;7.60;4.60;;;19.00;87.50;;;;;;1977793;72;21002;-62
2022/09/13 19:39:12;;;;;;;4.87;4.10;;;18.90;87.40;;;;;;1977791;72;20998;-62
2022/09/13 19:41:42;;;;;;;5.87;4.25;;;18.90;87.50;;;;;;1977819;72;21001;-63
2022/09/13 19:44:12;;;;;;;7.22;4.50;;;18.80;87.70;;;;;;1977751;72;21018;-62
2022/09/13 19:46:42;;;;;;;6.37;3.95;;;18.70;87.70;;;;;;1977883;72;21019;-62
2022/09/13 19:49:14;;;;;;;5.40;4.30;;;18.70;88.50;;;;;;1977773;72;21005;-62
2022/09/13 19:51:44;;;;;;;10.60;4.00;;;18.60;88.00;;;;;;1977477;72;20986;-62
2022/09/13 19:54:16;;;;;;;4.92;4.17;;;18.60;88.30;;;;;;1976404;72;21041;-62
2022/09/13 19:56:45;;;;;;;9.55;4.20;;;18.50;88.50;;;;;;1974068;72;21037;-62
2022/09/13 19:59:18;;;;;;;6.53;4.20;;;18.50;88.80;;;;;;1974196;73;21033;-62
2022/09/13 20:01:47;;;;;;;5.15;4.12;;;18.50;88.80;;;;;;1974080;73;20970;-62
2022/09/13 20:04:19;;;;;;;5.53;4.00;;;18.50;88.80;;;;;;1974179;73;21072;-62
2022/09/13 20:06:50;;;;;;;6.50;4.42;;;18.40;89.10;;;;;;1974164;73;21013;-62
2022/09/13 20:09:21;;;;;;;8.53;4.40;;;18.40;89.10;;;;;;1974211;73;21005;-62
2022/09/13 20:11:51;;;;;;;5.40;4.35;;;18.30;89.20;;;;;;1974143;73;21030;-62
2022/09/13 20:14:21;;;;;;;5.45;4.17;;;18.30;89.40;;;;;;1974189;73;21014;-62
2022/09/13 20:16:50;;;;;;;5.92;3.90;;;18.30;89.60;;;;;;1974128;73;21067;-62
2022/09/13 20:19:20;;;;;;;5.58;3.98;;;18.30;89.70;;;;;;1974074;73;21022;-62
2022/09/13 20:21:50;;;;;;;5.55;2.60;;;18.30;89.70;;;;;;1974024;73;21018;-62
2022/09/13 20:24:19;;;;;;;4.58;2.60;;;18.40;89.60;;;;;;1974168;73;20966;-62
2022/09/13 20:26:50;;;;;;;5.78;2.70;;;18.30;89.10;;;;;;1974112;73;21475;-62
2022/09/13 20:29:20;;;;;;;2.60;2.17;;;18.30;88.90;;;;;;1974145;73;21522;-62
2022/09/13 20:31:49;;;;;;;2.52;2.33;;;18.30;89.20;;;;;;1974025;73;21002;-62
2022/09/13 20:34:18;;;;;;;3.35;2.08;;;18.30;89.30;;;;;;1974105;73;21065;-62
2022/09/13 20:36:48;;;;;;;3.08;2.30;;;18.30;89.10;;;;;;1974163;73;21008;-62
2022/09/13 20:39:17;;;;;;;3.55;2.30;;;18.30;89.30;;;;;;1974153;73;21074;-62
2022/09/13 20:41:48;;;;;;;3.33;1.90;;;18.30;89.30;;;;;;1974114;73;20990;-62
2022/09/13 20:44:18;;;;;;;3.10;2.12;;;18.30;89.10;;;;;;1974199;73;21420;-62
2022/09/13 20:46:47;;;;;;;4.35;2.62;;;18.30;88.90;;;;;;1974137;71;21056;-62
2022/09/13 20:49:16;;;;;;;5.80;4.40;;;18.30;88.60;;;;;;1974057;73;21063;-62
2022/09/13 20:51:48;;;;;;;8.35;4.60;;;18.20;88.60;;;;;;1974092;73;21018;-62
2022/09/13 20:54:17;;;;;;;7.05;5.25;;;18.20;88.80;;;;;;1978264;72;21526;-62
2022/09/13 20:56:47;;;;;;;10.60;5.15;;;18.10;88.90;;;;;;1997952;72;21096;-62
2022/09/13 20:59:16;;;;;;;9.08;5.58;;;18.10;89.00;;;;;;1997918;72;21538;-62
2022/09/13 21:01:46;;;;;;;7.60;4.20;;;18.10;89.00;;;;;;1998034;72;20985;-62
2022/09/13 21:04:16;;;;;;;8.30;4.60;;;18.00;89.10;;;;;;1998071;72;21130;-62
2022/09/13 21:09:33;;;;;;;6.37;4.22;;;18.00;89.30;;;;;;1998074;72;21009;-62
2022/09/13 21:12:02;;;;;;;7.15;4.85;;;18.00;89.40;;;;;;1997937;72;21103;-62
2022/09/13 21:14:32;;;;;;;7.55;5.10;;;17.90;89.60;;;;;;1998042;71;20981;-62
2022/09/13 21:17:06;;;;;;;9.98;5.22;;;18.00;89.90;;;;;;1997959;72;21009;-62
2022/09/13 21:19:33;;;;;;;5.78;4.67;;;18.00;90.10;;;;;;1997486;72;21032;-62
2022/09/13 21:22:02;;;;;;;4.62;3.77;;;18.00;90.00;;;;;;1997902;71;21080;-62
2022/09/13 21:24:31;;;;;;;5.10;4.22;;;18.10;90.10;;;;;;1997880;71;21054;-63
2022/09/13 21:27:01;;;;;;;6.92;4.00;;;18.20;90.20;;;;;;1997926;71;21021;-62
2022/09/13 21:29:30;;;;;;;4.12;3.60;;;18.20;90.20;;;;;;1998056;72;21009;-62
2022/09/13 21:32:00;;;;;;;4.72;3.60;;;18.20;90.20;;;;;;1997882;72;21025;-62
2022/09/13 21:34:29;;;;;;;5.85;3.10;;;18.30;90.20;;;;;;1998041;71;21063;-62
2022/09/13 21:36:58;;;;;;;3.98;3.30;;;18.30;90.20;;;;;;1997866;72;20985;-62
2022/09/13 21:39:28;;;;;;;4.05;3.00;;;18.30;90.20;;;;;;1998059;72;21431;-62
2022/09/13 21:41:57;;;;;;;2.52;2.33;;;18.30;90.00;;;;;;1997831;72;21066;-62
2022/09/13 21:44:27;;;;;;;2.92;2.62;;;18.30;90.30;;;;;;1997877;71;21060;-62
2022/09/13 21:46:56;;;;;;;3.55;2.35;;;18.30;90.20;;;;;;1997939;72;21025;-62
2022/09/13 21:49:26;;;;;;;4.92;2.37;;;18.30;90.20;;;;;;1997870;71;21066;-62
2022/09/13 21:51:55;;;;;;;2.90;2.58;;;18.30;90.10;;;;;;1997846;72;21106;-62
2022/09/13 21:54:25;;;;;;;3.58;2.60;;;18.20;90.00;;;;;;1997764;72;21066;-62
2022/09/13 21:56:54;;;;;;;7.67;3.20;;;18.10;90.00;;;;;;1977668;72;21071;-62
2022/09/13 21:59:24;;;;;;;6.87;2.62;;;18.00;90.20;;;;;;1977808;72;20982;-62
2022/09/13 22:01:53;;;;;;;3.15;2.85;;;18.00;90.20;;;;;;1977818;72;21009;-62
2022/09/13 22:04:26;;;;;;;4.35;2.67;;;17.90;90.20;;;;;;1977692;72;21017;-62
2022/09/13 22:06:55;;;;;;;3.30;2.52;;;17.80;90.20;;;;;;1977859;72;21054;-62
2022/09/13 22:09:26;;;;;;;2.75;2.42;;;17.80;90.30;;;;;;1977726;72;21075;-62
2022/09/13 22:11:56;;;;;;;5.00;2.37;;;17.80;90.30;;;;;;1977680;72;21077;-62
2022/09/13 22:14:25;;;;;;;4.47;2.47;;;17.70;90.30;;;;;;1977763;72;21009;-62
2022/09/13 22:16:55;;;;;;;5.05;2.55;;;17.80;90.40;;;;;;1977716;72;21010;-62
2022/09/13 22:19:26;;;;;;;4.20;2.47;;;17.80;90.50;;;;;;1977690;72;21001;-62
2022/09/13 22:21:57;;;;;;;6.00;2.60;;;17.80;90.50;;;;;;1977796;72;21022;-62
2022/09/13 22:24:30;;;;;;;2.80;2.30;;;17.80;90.50;;;;;;1977780;72;21009;-62
2022/09/13 22:26:59;;;;;;;3.40;2.72;;;17.80;90.30;;;;;;1977812;72;20994;-62
2022/09/13 22:29:29;;;;;;;3.72;2.60;;;17.80;90.40;;;;;;1977851;72;21002;-62
2022/09/13 22:31:59;;;;;;;3.33;2.77;;;17.80;90.40;;;;;;1977654;72;21002;-62
2022/09/13 22:34:29;;;;;;;3.45;2.77;;;17.80;90.50;;;;;;1977854;72;21063;-62
2022/09/13 22:36:58;;;;;;;2.85;2.60;;;17.80;90.50;;;;;;1977675;72;21030;-62
2022/09/13 22:39:28;;;;;;;4.05;2.52;;;17.80;90.50;;;;;;1977820;72;21071;-62
2022/09/13 22:41:57;;;;;;;8.45;3.05;;;17.80;90.60;;;;;;1977721;72;21123;-62
2022/09/13 22:44:27;;;;;;;2.87;2.65;;;17.80;90.60;;;;;;1977750;72;21010;-62
2022/09/13 22:46:59;;;;;;;6.33;2.87;;;17.80;90.60;;;;;;1977685;72;21122;-62
2022/09/13 22:49:27;;;;;;;3.40;2.90;;;17.80;90.60;;;;;;1977734;72;21456;-62
2022/09/13 22:51:56;;;;;;;3.15;2.83;;;17.80;90.60;;;;;;1977711;72;21060;-62
2022/09/13 22:54:27;;;;;;;2.60;2.22;;;17.80;90.60;;;;;;1977703;72;21037;-62
2022/09/13 22:56:57;;;;;;;5.28;2.65;;;17.80;90.70;;;;;;1993357;72;21090;-62
2022/09/13 22:59:26;;;;;;;3.40;2.27;;;17.80;90.70;;;;;;1997860;72;21032;-62
2022/09/13 23:01:55;;;;;;;3.72;2.35;;;17.80;90.70;;;;;;1997980;71;21001;-62
2022/09/13 23:04:24;;;;;;;3.22;2.62;;;17.80;90.70;;;;;;1997861;72;21025;-62
2022/09/13 23:06:54;;;;;;;3.25;2.75;;;17.80;90.60;;;;;;1997911;72;21055;-62
2022/09/13 23:09:23;;;;;;;2.83;2.62;;;17.80;90.60;;;;;;1997991;72;21088;-62
2022/09/13 23:11:53;;;;;;;3.62;2.80;;;17.80;90.60;;;;;;1997921;72;21013;-62
2022/09/13 23:14:22;;;;;;;4.10;2.83;;;17.80;90.60;;;;;;1997909;71;20988;-62
2022/09/13 23:16:53;;;;;;;2.47;2.27;;;17.80;90.60;;;;;;1997973;72;21001;-62
2022/09/13 23:19:26;;;;;;;3.12;2.40;;;17.80;90.60;;;;;;1998036;72;21513;-62
2022/09/13 23:21:54;;;;;;;3.08;2.17;;;17.70;90.70;;;;;;1997606;72;21024;-62
2022/09/13 23:24:23;;;;;;;2.47;2.27;;;17.60;90.50;;;;;;1997962;71;20993;-62
2022/09/13 23:26:55;;;;;;;3.80;3.08;;;17.60;90.50;;;;;;1997926;72;21001;-62
2022/09/13 23:29:24;;;;;;;2.67;2.47;;;17.60;90.50;;;;;;1998006;72;20973;-62
2022/09/13 23:31:54;;;;;;;4.72;3.60;;;17.50;90.50;;;;;;1998001;70;21001;-62
2022/09/13 23:34:24;;;;;;;2.75;2.40;;;17.40;90.40;;;;;;1997995;72;21021;-62
2022/09/13 23:36:53;;;;;;;3.90;2.12;;;17.40;90.50;;;;;;1997950;72;21001;-62
2022/09/13 23:39:23;;;;;;;2.77;2.58;;;17.30;90.60;;;;;;1998278;72;21052;-62
2022/09/13 23:41:52;;;;;;;3.10;2.80;;;17.30;90.60;;;;;;1997954;72;21487;-62
2022/09/13 23:44:22;;;;;;;2.85;2.10;;;17.30;90.60;;;;;;1998019;72;21013;-63
2022/09/13 23:46:51;;;;;;;4.40;2.70;;;17.30;90.70;;;;;;1998022;72;21070;-62
2022/09/13 23:49:20;;;;;;;4.65;2.27;;;17.30;90.70;;;;;;1997944;72;21001;-62
2022/09/13 23:51:50;;;;;;;3.25;2.37;;;17.30;90.70;;;;;;1998009;72;21004;-62
2022/09/13 23:54:19;;;;;;;2.60;2.33;;;17.30;90.60;;;;;;1997837;72;21013;-62
2022/09/13 23:56:48;;;;;;;2.77;2.12;;;17.30;90.50;;;;;;1988282;72;21484;-62
2022/09/13 23:59:17;;;;;;;2.92;2.12;;;17.30;90.50;;;;;;1977768;72;20990;-62
